Time;durP1;ratioP1;P1;durP2;ratioP2;P2;SDS_P1;SDS_P2;PMS_P1;PMS_P2;Temp;Humidity;BMP_temperature;BMP_pressure;BME280_temperature;BME280_humidity;BME280_pressure;Samples;Min_cycle;Max_cycle;Signal;HPM_P1;HPM_P2
2021/01/11 06:14:05;;;;;;;15.37;6.47;;;-1.90;97.30;;;;;;5663768;23;20533;-85
2021/01/11 06:16:32;;;;;;;10.60;6.13;;;-1.90;97.30;;;;;;4918675;29;20437;-84
2021/01/11 06:18:58;;;;;;;12.13;6.10;;;-1.90;97.30;;;;;;4917181;29;20421;-85
2021/01/11 06:21:24;;;;;;;11.87;6.20;;;-1.90;97.30;;;;;;4908295;29;20472;-86
2021/01/11 06:24:13;;;;;;;11.00;5.90;;;-1.90;97.30;;;;;;4898607;29;20469;-85
2021/01/11 06:26:39;;;;;;;13.40;7.20;;;-1.90;97.30;;;;;;4898934;29;20880;-84
2021/01/11 06:29:31;;;;;;;15.00;7.07;;;-1.90;97.30;;;;;;4898522;29;20422;-84
2021/01/11 06:32:16;;;;;;;13.27;6.70;;;-1.90;97.30;;;;;;4899108;29;20610;-85
2021/01/11 06:34:42;;;;;;;16.37;6.80;;;-1.90;97.30;;;;;;4899878;29;20493;-84
2021/01/11 06:37:21;;;;;;;15.63;6.47;;;-2.00;97.30;;;;;;4899116;29;20436;-85
2021/01/11 06:39:47;;;;;;;12.57;5.80;;;-2.00;97.30;;;;;;4898366;29;21003;-85
2021/01/11 06:42:14;;;;;;;11.73;6.13;;;-2.00;97.30;;;;;;4899507;29;20791;-85
2021/01/11 06:44:46;;;;;;;14.37;6.97;;;-2.10;97.30;;;;;;4899124;29;20421;-85
2021/01/11 06:47:28;;;;;;;16.00;7.27;;;-2.10;97.30;;;;;;4898434;29;20496;-85
2021/01/11 06:50:06;;;;;;;11.90;6.23;;;-2.00;97.30;;;;;;4898799;29;20421;-85
2021/01/11 06:52:36;;;;;;;14.60;6.93;;;-2.00;97.30;;;;;;4898841;29;20478;-85
2021/01/11 06:55:13;;;;;;;12.40;6.67;;;-2.00;97.30;;;;;;4898870;29;20425;-86
2021/01/11 06:57:39;;;;;;;17.30;7.63;;;-2.10;97.30;;;;;;4900773;29;20446;-85
2021/01/11 07:00:11;;;;;;;13.33;6.50;;;-2.10;97.30;;;;;;4898966;29;20462;-84
2021/01/11 07:02:43;;;;;;;11.53;6.17;;;-2.10;97.30;;;;;;4900372;29;20963;-84
2021/01/11 07:05:33;;;;;;;17.50;6.50;;;-2.10;97.30;;;;;;4898954;29;20417;-85
2021/01/11 07:08:02;;;;;;;12.53;6.70;;;-2.10;97.30;;;;;;4895109;29;20428;-84
2021/01/11 07:10:28;;;;;;;13.50;6.23;;;-2.10;97.30;;;;;;4898557;29;20493;-85
2021/01/11 07:13:18;;;;;;;11.47;6.40;;;-2.10;97.30;;;;;;4899618;29;20927;-85
2021/01/11 07:15:51;;;;;;;12.47;6.80;;;-2.10;97.30;;;;;;4899243;29;20243;-85
2021/01/11 07:18:38;;;;;;;14.10;6.77;;;-2.10;97.30;;;;;;4899680;29;20410;-84
2021/01/11 07:21:17;;;;;;;14.43;6.63;;;-2.20;97.30;;;;;;4898126;29;20481;-84
2021/01/11 07:23:44;;;;;;;14.27;7.27;;;-2.20;97.30;;;;;;4896973;29;20958;-85
2021/01/11 07:26:17;;;;;;;15.77;6.50;;;-2.20;97.30;;;;;;4897901;29;20429;-85
2021/01/11 07:28:53;;;;;;;13.30;6.30;;;-2.10;97.30;;;;;;4897636;29;20426;-85
2021/01/11 07:31:20;;;;;;;12.20;6.30;;;-2.10;97.30;;;;;;4896032;29;20477;-84
2021/01/11 07:33:50;;;;;;;14.37;6.90;;;-2.10;97.30;;;;;;4897916;29;20642;-85
2021/01/11 07:36:20;;;;;;;16.57;6.53;;;-2.10;97.30;;;;;;4898250;29;20430;-85
2021/01/11 07:38:47;;;;;;;14.90;7.93;;;-2.00;97.30;;;;;;4900051;29;20429;-86
2021/01/11 07:41:24;;;;;;;11.00;5.37;;;-2.00;97.30;;;;;;4903712;29;20465;-84
2021/01/11 07:43:50;;;;;;;13.57;6.53;;;-2.00;97.30;;;;;;4900870;29;21006;-84
2021/01/11 07:46:22;;;;;;;12.83;5.17;;;-1.90;97.30;;;;;;4902041;29;20410;-85
2021/01/11 07:48:48;;;;;;;13.30;5.70;;;-1.90;97.30;;;;;;4902378;29;20534;-85
2021/01/11 07:51:14;;;;;;;13.27;5.97;;;-1.80;97.30;;;;;;4902471;29;20452;-85
2021/01/11 07:53:40;;;;;;;12.50;6.37;;;-1.80;97.30;;;;;;4903237;29;20425;-84
2021/01/11 07:56:08;;;;;;;11.70;5.53;;;-1.70;97.30;;;;;;4904167;29;20937;-84
2021/01/11 07:58:33;;;;;;;13.33;6.27;;;-1.70;97.30;;;;;;4901833;29;20201;-85
2021/01/11 08:01:05;;;;;;;11.57;6.40;;;-1.60;97.30;;;;;;4901384;29;20473;-85
2021/01/11 08:03:32;;;;;;;13.47;5.60;;;-1.60;97.30;;;;;;4901339;29;20421;-85
2021/01/11 08:06:03;;;;;;;12.03;5.80;;;-1.50;97.30;;;;;;4902692;29;20489;-86
2021/01/11 08:08:32;;;;;;;10.77;5.90;;;-1.50;97.30;;;;;;4901201;29;20421;-85
2021/01/11 08:10:59;;;;;;;12.10;6.00;;;-1.40;97.30;;;;;;4901054;29;20445;-85
2021/01/11 08:13:25;;;;;;;11.90;5.60;;;-1.40;97.30;;;;;;4900929;29;20575;-86
2021/01/11 08:15:54;;;;;;;12.00;6.33;;;-1.30;97.30;;;;;;4900770;29;20951;-87
2021/01/11 08:18:22;;;;;;;11.07;6.03;;;-1.30;97.30;;;;;;4900550;29;20730;-86
2021/01/11 08:20:48;;;;;;;12.17;6.00;;;-1.20;97.30;;;;;;4900085;29;20497;-86
2021/01/11 08:23:13;;;;;;;8.87;5.27;;;-1.20;97.30;;;;;;4900975;29;20425;-85
2021/01/11 08:25:40;;;;;;;13.60;6.47;;;-1.10;97.30;;;;;;4900630;29;20276;-87
2021/01/11 08:28:07;;;;;;;11.80;5.83;;;-1.10;97.30;;;;;;4901830;29;20205;-86
2021/01/11 08:30:33;;;;;;;13.80;5.80;;;-1.10;97.30;;;;;;4900691;29;20513;-86
2021/01/11 08:33:05;;;;;;;11.03;5.90;;;-1.00;97.30;;;;;;4900348;29;20417;-86
2021/01/11 08:35:31;;;;;;;13.00;5.50;;;-1.00;97.30;;;;;;4900243;29;20425;-86
2021/01/11 08:38:00;;;;;;;13.30;6.30;;;-0.90;97.30;;;;;;4900594;29;20425;-87
2021/01/11 08:40:29;;;;;;;12.27;6.80;;;-0.90;97.30;;;;;;4899870;29;20220;-87
2021/01/11 08:43:07;;;;;;;14.57;5.30;;;-0.80;97.30;;;;;;4899811;29;20500;-87
2021/01/11 08:45:32;;;;;;;12.80;5.40;;;-0.70;97.30;;;;;;4900543;29;20421;-86
2021/01/11 08:48:11;;;;;;;9.47;5.50;;;-0.60;97.30;;;;;;4900139;29;20950;-85
2021/01/11 08:50:58;;;;;;;10.77;5.93;;;-0.50;97.30;;;;;;4899919;29;20746;-86
2021/01/11 08:53:25;;;;;;;10.67;5.47;;;-0.40;97.30;;;;;;4900006;29;20428;-87
2021/01/11 08:56:04;;;;;;;10.80;5.20;;;-0.30;97.30;;;;;;4900520;29;20430;-87
2021/01/11 08:58:35;;;;;;;11.87;5.90;;;-0.20;97.30;;;;;;4900637;29;20935;-85
2021/01/11 09:01:17;;;;;;;10.40;5.70;;;0.00;97.30;;;;;;4900312;29;20477;-86
2021/01/11 09:03:45;;;;;;;7.50;5.07;;;0.10;97.30;;;;;;4899755;29;20437;-85
2021/01/11 09:06:11;;;;;;;10.20;5.20;;;0.20;97.30;;;;;;4899996;29;20429;-84
2021/01/11 09:08:36;;;;;;;7.60;4.70;;;0.30;97.30;;;;;;4903045;29;20417;-84
2021/01/11 09:11:11;;;;;;;11.93;5.63;;;0.30;97.30;;;;;;4899735;29;20449;-84
2021/01/11 09:13:37;;;;;;;7.40;4.43;;;0.40;97.30;;;;;;4899423;29;20189;-84
2021/01/11 09:16:14;;;;;;;10.00;5.17;;;0.40;97.30;;;;;;4899655;29;20452;-84
2021/01/11 09:18:40;;;;;;;10.70;5.33;;;0.50;97.30;;;;;;4899500;29;20425;-82
2021/01/11 09:21:07;;;;;;;13.00;4.80;;;0.60;97.30;;;;;;4899237;29;20495;-84
2021/01/11 09:23:33;;;;;;;8.63;4.63;;;0.60;97.30;;;;;;4899854;29;20627;-83
2021/01/11 09:26:00;;;;;;;11.53;4.70;;;0.70;97.30;;;;;;4900052;29;20434;-82
2021/01/11 09:28:27;;;;;;;9.10;4.90;;;0.80;97.30;;;;;;4899981;29;20232;-83
2021/01/11 09:30:54;;;;;;;8.00;4.67;;;0.70;97.30;;;;;;4899889;29;20453;-83
2021/01/11 09:33:20;;;;;;;8.87;4.43;;;0.70;97.30;;;;;;4899664;29;20425;-83
2021/01/11 09:35:46;;;;;;;8.60;5.17;;;0.50;97.30;;;;;;4900050;29;20421;-83
2021/01/11 09:38:12;;;;;;;6.23;4.30;;;0.50;97.30;;;;;;4899374;29;20441;-81
2021/01/11 09:40:37;;;;;;;10.47;4.83;;;0.50;97.30;;;;;;4900241;29;20209;-81
2021/01/11 09:43:03;;;;;;;7.83;4.10;;;0.50;97.30;;;;;;4900138;29;20509;-83
2021/01/11 09:45:29;;;;;;;9.67;5.37;;;0.40;97.30;;;;;;4900228;29;20566;-81
2021/01/11 09:47:55;;;;;;;7.87;4.40;;;0.40;97.30;;;;;;4899629;29;20181;-82
2021/01/11 09:50:20;;;;;;;8.80;5.60;;;0.40;97.30;;;;;;4899490;29;20188;-82
2021/01/11 09:52:48;;;;;;;9.93;4.67;;;0.30;97.30;;;;;;4898799;29;20613;-82
2021/01/11 09:55:16;;;;;;;9.30;4.43;;;0.30;97.30;;;;;;4899271;29;20268;-81
2021/01/11 09:57:42;;;;;;;11.00;4.03;;;0.30;97.30;;;;;;4900155;29;20492;-81
2021/01/11 10:00:12;;;;;;;8.33;4.50;;;0.30;97.30;;;;;;4899206;29;20557;-82
2021/01/11 10:02:39;;;;;;;6.77;4.70;;;0.30;97.30;;;;;;4899403;29;20480;-83
2021/01/11 10:05:05;;;;;;;10.23;5.60;;;0.30;97.30;;;;;;4899896;29;20422;-82
2021/01/11 10:07:31;;;;;;;10.50;4.40;;;0.30;97.30;;;;;;4899300;29;20417;-81
2021/01/11 10:09:57;;;;;;;10.07;5.37;;;0.30;97.30;;;;;;4899139;29;20505;-83
2021/01/11 10:12:22;;;;;;;8.50;4.97;;;0.30;97.30;;;;;;4898352;29;20453;-81
2021/01/11 10:14:48;;;;;;;7.83;4.70;;;0.30;97.30;;;;;;4898164;29;20690;-83
2021/01/11 10:17:14;;;;;;;8.77;4.27;;;0.30;97.30;;;;;;4898064;29;20202;-83
2021/01/11 10:19:39;;;;;;;10.43;5.30;;;0.30;97.30;;;;;;4898484;29;20181;-82
2021/01/11 10:22:05;;;;;;;7.80;4.97;;;0.40;97.30;;;;;;4897806;29;20201;-82
2021/01/11 10:24:31;;;;;;;7.77;4.13;;;0.50;97.30;;;;;;4892390;29;20201;-81
2021/01/11 10:26:57;;;;;;;8.73;4.90;;;0.50;97.30;;;;;;4879064;29;20194;-82
2021/01/11 10:29:25;;;;;;;13.43;4.97;;;0.60;97.30;;;;;;4879240;29;20190;-82
2021/01/11 10:31:52;;;;;;;7.77;4.80;;;0.70;97.30;;;;;;4878955;29;20951;-82
2021/01/11 10:34:18;;;;;;;8.37;4.60;;;0.70;97.30;;;;;;4879270;29;20427;-82
2021/01/11 10:36:46;;;;;;;8.73;4.70;;;0.80;97.30;;;;;;4879139;29;20430;-81
2021/01/11 10:39:13;;;;;;;11.30;5.20;;;0.80;97.30;;;;;;4878771;29;20422;-81
2021/01/11 10:41:39;;;;;;;8.27;4.40;;;0.80;97.30;;;;;;4878785;29;20483;-83
2021/01/11 10:44:07;;;;;;;11.50;5.07;;;0.90;97.30;;;;;;4879208;29;20901;-82
2021/01/11 10:46:34;;;;;;;8.27;4.30;;;0.90;97.30;;;;;;4878865;29;20849;-82
2021/01/11 10:49:00;;;;;;;8.80;4.63;;;0.90;97.30;;;;;;4879841;29;20443;-81
2021/01/11 10:51:26;;;;;;;7.40;4.70;;;0.80;97.30;;;;;;4879089;29;20459;-81
2021/01/11 10:53:52;;;;;;;9.60;4.87;;;0.80;97.30;;;;;;4879140;29;20237;-81
2021/01/11 10:56:18;;;;;;;7.80;4.60;;;0.80;97.30;;;;;;4878735;29;20427;-83
2021/01/11 10:58:44;;;;;;;8.93;4.67;;;0.90;97.30;;;;;;4881098;29;20200;-83
2021/01/11 11:01:14;;;;;;;7.17;4.50;;;0.90;97.30;;;;;;4897539;29;20941;-82
2021/01/11 11:03:41;;;;;;;7.90;4.40;;;0.90;97.30;;;;;;4897275;29;20449;-82
2021/01/11 11:06:07;;;;;;;8.77;5.07;;;1.00;97.30;;;;;;4897503;29;20932;-82
2021/01/11 11:08:33;;;;;;;8.97;5.07;;;1.10;97.30;;;;;;4897475;29;20794;-81
2021/01/11 11:10:59;;;;;;;9.27;4.70;;;1.10;97.30;;;;;;4897169;29;20445;-82
2021/01/11 11:13:25;;;;;;;8.67;4.97;;;1.20;97.00;;;;;;4897415;29;20429;-82
2021/01/11 11:15:51;;;;;;;6.20;4.07;;;1.20;97.30;;;;;;4897701;29;20353;-82
2021/01/11 11:18:16;;;;;;;7.00;4.13;;;1.20;97.30;;;;;;4899002;29;20421;-82
2021/01/11 11:20:47;;;;;;;10.33;5.33;;;1.20;97.30;;;;;;4897252;29;20631;-81
2021/01/11 11:23:12;;;;;;;10.13;5.63;;;1.20;97.20;;;;;;4897411;29;20505;-81
2021/01/11 11:25:45;;;;;;;8.33;4.70;;;1.30;97.30;;;;;;4898992;29;20449;-83
2021/01/11 11:28:11;;;;;;;9.40;4.90;;;1.30;97.20;;;;;;4897346;29;20516;-81
2021/01/11 11:30:37;;;;;;;9.00;4.80;;;1.30;97.30;;;;;;4898068;29;20446;-81
2021/01/11 11:33:02;;;;;;;9.23;5.37;;;1.40;97.30;;;;;;4897942;29;20488;-81
2021/01/11 11:35:29;;;;;;;7.80;4.83;;;1.40;97.30;;;;;;4897857;29;20188;-83
2021/01/11 11:37:55;;;;;;;10.37;5.10;;;1.40;97.30;;;;;;4897713;29;20433;-83
2021/01/11 11:40:21;;;;;;;9.30;4.50;;;1.40;97.30;;;;;;4897472;29;20573;-81
2021/01/11 11:42:47;;;;;;;8.27;4.87;;;1.30;97.30;;;;;;4896958;29;20607;-81
2021/01/11 11:45:14;;;;;;;8.17;4.60;;;1.30;97.30;;;;;;4897214;29;20225;-81
2021/01/11 11:47:42;;;;;;;10.03;4.30;;;1.20;97.30;;;;;;4897513;29;20425;-81
2021/01/11 11:50:10;;;;;;;11.70;5.67;;;1.20;97.30;;;;;;4897340;29;20803;-80
2021/01/11 11:52:37;;;;;;;7.80;4.83;;;1.20;97.30;;;;;;4897605;29;20481;-83
2021/01/11 11:55:05;;;;;;;7.37;4.40;;;1.20;97.30;;;;;;4897410;29;20441;-81
2021/01/11 11:57:30;;;;;;;10.30;5.40;;;1.20;97.30;;;;;;4898601;29;20498;-79
2021/01/11 11:59:56;;;;;;;8.77;4.50;;;1.20;97.30;;;;;;4896612;29;20520;-80
2021/01/11 12:02:22;;;;;;;9.80;6.17;;;1.20;97.30;;;;;;4900785;29;20208;-80
2021/01/11 12:04:47;;;;;;;9.30;5.10;;;1.10;97.30;;;;;;4898867;29;20707;-80
2021/01/11 12:07:17;;;;;;;8.83;4.90;;;1.10;97.30;;;;;;4899586;29;20181;-80
2021/01/11 12:09:43;;;;;;;12.00;6.03;;;1.10;97.30;;;;;;4901321;29;20178;-80
2021/01/11 12:12:11;;;;;;;11.73;5.73;;;1.10;97.30;;;;;;4897832;29;20879;-81
2021/01/11 12:14:37;;;;;;;9.67;5.00;;;1.20;97.30;;;;;;4899088;29;20449;-79
2021/01/11 12:17:04;;;;;;;11.17;5.67;;;1.20;97.30;;;;;;4898826;29;20425;-80
2021/01/11 12:19:30;;;;;;;9.77;5.30;;;1.20;97.30;;;;;;4901337;29;20192;-78
2021/01/11 12:21:55;;;;;;;10.87;5.57;;;1.20;97.30;;;;;;4898594;29;20450;-80
2021/01/11 12:24:21;;;;;;;11.50;5.60;;;1.20;97.30;;;;;;4898415;29;20188;-80
2021/01/11 12:26:50;;;;;;;11.87;6.00;;;1.20;97.30;;;;;;4901776;29;20188;-81
2021/01/11 12:29:17;;;;;;;11.27;4.93;;;1.20;97.30;;;;;;4899955;29;20187;-80
2021/01/11 12:31:44;;;;;;;9.97;5.53;;;1.20;97.30;;;;;;4901388;29;20529;-80
2021/01/11 12:34:10;;;;;;;11.77;5.57;;;1.20;97.30;;;;;;4900811;29;20852;-80
2021/01/11 12:36:37;;;;;;;9.83;5.13;;;1.20;97.30;;;;;;4901509;29;20513;-78
2021/01/11 12:39:06;;;;;;;12.23;5.37;;;1.20;97.30;;;;;;4900568;29;20489;-79
2021/01/11 12:41:32;;;;;;;9.63;5.10;;;1.20;97.30;;;;;;4901820;29;20476;-80
2021/01/11 12:43:58;;;;;;;10.53;5.60;;;1.20;97.30;;;;;;4902339;29;20756;-81
2021/01/11 12:46:24;;;;;;;8.60;5.37;;;1.20;97.30;;;;;;4903040;29;20636;-78
2021/01/11 12:48:51;;;;;;;10.27;5.03;;;1.30;97.30;;;;;;4900878;29;20181;-81
2021/01/11 12:51:19;;;;;;;9.17;5.50;;;1.30;97.30;;;;;;4900129;29;20975;-80
2021/01/11 12:53:46;;;;;;;12.30;5.80;;;1.30;97.30;;;;;;4900607;29;20445;-82
2021/01/11 12:56:20;;;;;;;11.30;5.80;;;1.40;97.30;;;;;;4901682;29;20440;-80
2021/01/11 12:58:47;;;;;;;9.47;5.10;;;1.40;97.30;;;;;;4901896;29;20444;-81
2021/01/11 13:01:23;;;;;;;11.30;5.90;;;1.40;97.30;;;;;;4901780;29;20473;-81
2021/01/11 13:03:50;;;;;;;12.47;6.27;;;1.40;97.30;;;;;;4901937;29;20516;-81
2021/01/11 13:06:20;;;;;;;8.77;5.10;;;1.40;97.30;;;;;;4901452;29;20807;-81
2021/01/11 13:08:46;;;;;;;12.80;7.03;;;1.40;97.30;;;;;;4901601;29;20456;-81
2021/01/11 13:11:14;;;;;;;19.53;7.60;;;1.30;97.30;;;;;;4903365;29;20444;-80
2021/01/11 13:13:40;;;;;;;12.43;6.80;;;1.30;97.30;;;;;;4901954;29;20440;-81
2021/01/11 13:16:05;;;;;;;15.50;7.73;;;1.30;97.30;;;;;;4901631;29;20424;-81
2021/01/11 13:18:31;;;;;;;16.30;7.40;;;1.30;97.30;;;;;;4902704;29;20618;-81
2021/01/11 13:20:57;;;;;;;13.67;6.63;;;1.30;97.30;;;;;;4902035;29;20285;-81
2021/01/11 13:23:22;;;;;;;11.60;6.17;;;1.30;97.30;;;;;;4904129;29;20174;-80
2021/01/11 13:25:48;;;;;;;15.97;7.67;;;1.30;97.30;;;;;;4902143;29;20193;-79
2021/01/11 13:28:14;;;;;;;15.53;7.50;;;1.30;97.30;;;;;;4902132;29;20224;-80
2021/01/11 13:30:42;;;;;;;13.70;7.00;;;1.30;97.30;;;;;;4903635;29;21003;-81
2021/01/11 13:33:08;;;;;;;12.03;6.03;;;1.40;97.30;;;;;;4903153;29;20189;-80
2021/01/11 13:35:34;;;;;;;15.37;7.23;;;1.40;97.30;;;;;;4902125;29;20958;-80
2021/01/11 13:38:02;;;;;;;16.27;7.60;;;1.40;97.30;;;;;;4902749;29;20777;-79
2021/01/11 13:40:28;;;;;;;17.90;7.10;;;1.40;97.30;;;;;;4901711;29;20598;-80
2021/01/11 13:42:54;;;;;;;15.10;7.47;;;1.30;97.30;;;;;;4902412;29;20965;-81
2021/01/11 13:45:19;;;;;;;17.77;7.70;;;1.40;97.30;;;;;;4902587;29;20192;-80
2021/01/11 13:47:48;;;;;;;13.50;6.67;;;1.40;97.30;;;;;;4903318;29;20181;-79
2021/01/11 13:50:15;;;;;;;14.00;6.90;;;1.40;97.30;;;;;;4904269;29;20185;-78
2021/01/11 13:52:41;;;;;;;12.17;6.33;;;1.40;97.30;;;;;;4902613;29;20441;-80
2021/01/11 13:55:08;;;;;;;13.50;6.77;;;1.40;97.30;;;;;;4902455;29;20437;-78
2021/01/11 13:57:34;;;;;;;13.17;6.60;;;1.50;97.30;;;;;;4902690;29;20421;-79
2021/01/11 14:00:09;;;;;;;10.87;6.10;;;1.50;97.30;;;;;;4903063;29;20537;-79
2021/01/11 14:02:35;;;;;;;15.43;6.70;;;1.50;97.30;;;;;;4903363;29;20193;-79
2021/01/11 14:05:01;;;;;;;16.27;7.53;;;1.50;97.30;;;;;;4902299;29;20421;-79
2021/01/11 14:07:28;;;;;;;17.60;6.80;;;1.60;97.30;;;;;;4902167;29;20428;-79
2021/01/11 14:09:54;;;;;;;15.40;6.90;;;1.50;97.30;;;;;;4903712;29;20410;-79
2021/01/11 14:12:19;;;;;;;12.47;6.37;;;1.50;97.30;;;;;;4904893;29;20455;-80
2021/01/11 14:14:45;;;;;;;17.87;6.80;;;1.50;97.30;;;;;;4904489;29;20252;-80
2021/01/11 14:17:10;;;;;;;14.37;6.90;;;1.60;97.30;;;;;;4902793;29;20430;-79
2021/01/11 14:19:36;;;;;;;14.00;6.80;;;1.60;97.30;;;;;;4904176;29;20268;-79
2021/01/11 14:22:02;;;;;;;16.60;6.90;;;1.50;97.30;;;;;;4902531;29;20220;-78
2021/01/11 14:24:27;;;;;;;14.30;6.80;;;1.50;97.30;;;;;;4902243;29;20275;-80
2021/01/11 14:26:53;;;;;;;13.60;7.40;;;1.50;97.30;;;;;;4902368;29;20209;-80
2021/01/11 14:29:19;;;;;;;29.23;9.90;;;1.50;97.30;;;;;;4906232;29;20177;-81
2021/01/11 14:31:44;;;;;;;15.40;6.70;;;1.50;97.30;;;;;;4910489;29;20201;-79
2021/01/11 14:34:10;;;;;;;14.90;6.93;;;1.50;97.30;;;;;;4912927;29;20189;-79
2021/01/11 14:36:36;;;;;;;12.50;6.53;;;1.50;97.30;;;;;;4911322;29;20586;-79
2021/01/11 14:39:01;;;;;;;16.37;7.67;;;1.50;97.30;;;;;;4903900;29;20563;-80
2021/01/11 14:41:27;;;;;;;13.83;6.87;;;1.50;97.30;;;;;;4900060;29;20687;-80
2021/01/11 14:43:53;;;;;;;11.80;6.20;;;1.50;97.30;;;;;;4899884;29;20183;-80
2021/01/11 14:46:25;;;;;;;11.67;6.97;;;1.50;97.30;;;;;;4898987;29;20176;-80
2021/01/11 14:48:52;;;;;;;12.90;6.17;;;1.50;97.30;;;;;;4898555;29;20185;-80
2021/01/11 14:51:18;;;;;;;17.63;7.20;;;1.50;97.30;;;;;;4899998;29;20437;-75
2021/01/11 14:53:45;;;;;;;11.37;6.43;;;1.50;97.30;;;;;;4898554;29;20916;-81
2021/01/11 14:56:14;;;;;;;11.10;6.30;;;1.50;97.30;;;;;;4898860;29;20635;-81
2021/01/11 14:58:44;;;;;;;19.80;6.80;;;1.50;97.30;;;;;;4898906;29;20425;-80
2021/01/11 15:01:11;;;;;;;13.77;7.03;;;1.50;97.30;;;;;;4898755;29;20995;-81
2021/01/11 15:03:36;;;;;;;13.37;6.30;;;1.60;97.30;;;;;;4898597;29;20417;-80
2021/01/11 15:06:02;;;;;;;16.53;7.40;;;1.60;97.30;;;;;;4898633;29;20431;-80
2021/01/11 15:08:28;;;;;;;14.87;6.37;;;1.50;97.30;;;;;;4898256;29;20195;-81
2021/01/11 15:10:54;;;;;;;14.63;6.63;;;1.50;97.30;;;;;;4898425;29;20655;-80
2021/01/11 15:13:20;;;;;;;14.20;6.20;;;1.50;97.30;;;;;;4898293;29;20185;-79
2021/01/11 15:15:46;;;;;;;12.10;5.63;;;1.50;97.30;;;;;;4898214;29;20453;-78
2021/01/11 15:18:13;;;;;;;14.70;6.83;;;1.50;97.30;;;;;;4898427;29;20235;-80
2021/01/11 15:20:43;;;;;;;12.90;6.63;;;1.50;97.30;;;;;;4898884;29;20212;-80
2021/01/11 15:23:09;;;;;;;13.37;6.77;;;1.50;97.30;;;;;;4899887;29;20441;-78
2021/01/11 15:25:35;;;;;;;13.30;6.70;;;1.50;97.30;;;;;;4899237;29;20425;-82
2021/01/11 15:28:03;;;;;;;13.20;6.90;;;1.50;97.30;;;;;;4901695;29;20617;-81
2021/01/11 15:30:28;;;;;;;14.17;6.40;;;1.50;97.30;;;;;;4897973;29;20432;-79
2021/01/11 15:32:54;;;;;;;17.83;7.00;;;1.50;97.30;;;;;;4898925;29;20938;-81
2021/01/11 15:35:20;;;;;;;13.57;6.30;;;1.50;97.30;;;;;;4898975;29;20436;-81
2021/01/11 15:37:45;;;;;;;16.07;7.53;;;1.50;97.30;;;;;;4898293;29;20232;-81
2021/01/11 15:40:11;;;;;;;10.83;6.63;;;1.50;97.30;;;;;;4898371;29;20686;-79
2021/01/11 15:42:47;;;;;;;11.87;6.73;;;1.50;97.30;;;;;;4897860;29;20272;-79
2021/01/11 15:45:14;;;;;;;14.20;6.80;;;1.50;97.30;;;;;;4897979;29;20184;-80
2021/01/11 15:47:41;;;;;;;21.57;8.83;;;1.50;97.30;;;;;;4898607;29;20413;-80
2021/01/11 15:50:08;;;;;;;14.80;7.77;;;1.50;97.30;;;;;;4902232;29;20421;-80
2021/01/11 15:52:44;;;;;;;11.20;6.13;;;1.40;97.30;;;;;;4897497;29;20492;-76
2021/01/11 15:55:11;;;;;;;23.00;6.83;;;1.50;97.30;;;;;;4897011;29;20935;-78
2021/01/11 15:57:37;;;;;;;14.50;7.17;;;1.50;97.30;;;;;;4896430;29;20512;-77
2021/01/11 16:00:09;;;;;;;14.93;6.80;;;1.50;97.30;;;;;;4898545;29;20461;-77
2021/01/11 16:02:38;;;;;;;8.80;5.23;;;1.40;97.30;;;;;;4900214;29;20480;-76
2021/01/11 16:05:06;;;;;;;11.90;6.10;;;1.40;97.30;;;;;;4901506;29;20783;-77
2021/01/11 16:07:32;;;;;;;11.47;6.10;;;1.40;97.30;;;;;;4899847;29;20422;-77
2021/01/11 16:09:58;;;;;;;14.57;6.93;;;1.40;97.30;;;;;;4899527;29;21002;-77
2021/01/11 16:12:24;;;;;;;11.97;6.10;;;1.40;97.30;;;;;;4899846;29;20516;-77
2021/01/11 16:14:50;;;;;;;12.17;6.37;;;1.40;97.30;;;;;;4916675;29;20563;-78
2021/01/11 16:17:17;;;;;;;11.57;6.40;;;1.40;97.30;;;;;;4918597;29;20192;-78
2021/01/11 16:19:43;;;;;;;12.07;6.63;;;1.40;97.30;;;;;;4918394;29;20280;-78
2021/01/11 16:22:09;;;;;;;11.53;6.50;;;1.40;97.30;;;;;;4914922;29;20883;-79
2021/01/11 16:24:35;;;;;;;18.50;5.90;;;1.30;97.30;;;;;;4899799;29;20451;-76
2021/01/11 16:27:00;;;;;;;12.80;6.70;;;1.30;97.30;;;;;;4899148;29;20184;-77
2021/01/11 16:29:26;;;;;;;11.23;6.80;;;1.30;97.30;;;;;;4899737;29;20233;-79
2021/01/11 16:31:52;;;;;;;14.43;6.30;;;1.30;97.30;;;;;;4900672;29;20623;-79
2021/01/11 16:34:17;;;;;;;14.93;6.70;;;1.30;97.30;;;;;;4899627;29;20185;-79
2021/01/11 16:36:43;;;;;;;12.30;6.17;;;1.20;97.30;;;;;;4899428;29;20185;-77
2021/01/11 16:39:09;;;;;;;11.20;6.30;;;1.20;97.30;;;;;;4899430;29;20212;-78
2021/01/11 16:41:36;;;;;;;12.40;6.43;;;1.20;97.30;;;;;;4898928;29;20217;-78
2021/01/11 16:44:06;;;;;;;14.20;6.40;;;1.10;97.30;;;;;;4899945;29;20414;-78
2021/01/11 16:46:32;;;;;;;11.87;5.50;;;1.10;97.30;;;;;;4899409;29;20420;-76
2021/01/11 16:48:58;;;;;;;14.07;6.87;;;1.00;97.30;;;;;;4898974;29;20425;-75
2021/01/11 16:51:25;;;;;;;12.70;6.53;;;1.00;97.30;;;;;;4899108;29;20244;-76
2021/01/11 16:53:51;;;;;;;12.03;6.60;;;1.00;97.30;;;;;;4899133;29;20421;-78
2021/01/11 16:56:21;;;;;;;16.63;7.47;;;1.00;97.30;;;;;;4899440;29;20509;-77
2021/01/11 16:58:48;;;;;;;10.97;6.37;;;0.90;97.30;;;;;;4899545;29;20434;-82
2021/01/11 17:01:14;;;;;;;14.60;5.83;;;0.90;97.30;;;;;;4899235;29;20991;-76
2021/01/11 17:03:40;;;;;;;16.10;6.97;;;0.90;97.30;;;;;;4898948;29;20512;-78
2021/01/11 17:06:05;;;;;;;12.50;6.50;;;0.80;97.30;;;;;;4898756;29;20173;-77
2021/01/11 17:08:31;;;;;;;13.93;6.10;;;0.80;97.30;;;;;;4898837;29;20421;-75
2021/01/11 17:10:57;;;;;;;16.17;7.13;;;0.80;97.30;;;;;;4898491;29;20606;-77
2021/01/11 17:13:23;;;;;;;14.37;7.13;;;0.70;97.30;;;;;;4898658;29;20524;-79
2021/01/11 17:15:48;;;;;;;14.37;6.33;;;0.70;97.30;;;;;;4899953;29;20276;-79
2021/01/11 17:18:14;;;;;;;13.20;6.80;;;0.70;97.30;;;;;;4898701;29;20182;-78
2021/01/11 17:20:40;;;;;;;12.50;6.60;;;0.70;97.30;;;;;;4898537;29;20271;-76
2021/01/11 17:23:06;;;;;;;12.37;7.23;;;0.70;97.30;;;;;;4899788;29;20195;-74
2021/01/11 17:25:32;;;;;;;13.80;7.57;;;0.60;97.30;;;;;;4898437;29;20196;-79
2021/01/11 17:27:58;;;;;;;18.20;7.73;;;0.60;97.30;;;;;;4898583;29;20452;-78
2021/01/11 17:30:23;;;;;;;18.03;8.60;;;0.60;97.30;;;;;;4899211;29;20192;-79
2021/01/11 17:32:49;;;;;;;17.17;8.00;;;0.50;97.30;;;;;;4898619;29;20554;-81
2021/01/11 17:35:15;;;;;;;17.53;8.33;;;0.50;97.30;;;;;;4898935;29;20181;-77
2021/01/11 17:37:44;;;;;;;14.53;7.07;;;0.50;97.30;;;;;;4898377;29;20178;-79
2021/01/11 17:40:11;;;;;;;18.50;8.93;;;0.50;97.30;;;;;;4898604;29;20205;-79
2021/01/11 17:42:37;;;;;;;17.13;8.77;;;0.50;97.30;;;;;;4898366;29;20861;-80
2021/01/11 17:45:07;;;;;;;18.30;9.00;;;0.50;97.30;;;;;;4898653;29;20501;-78
2021/01/11 17:47:33;;;;;;;15.70;8.10;;;0.50;97.30;;;;;;4898354;29;20413;-80
2021/01/11 17:49:59;;;;;;;18.37;7.93;;;0.50;97.30;;;;;;4898480;29;20420;-79
2021/01/11 17:52:24;;;;;;;17.60;8.17;;;0.50;97.30;;;;;;4899675;29;20280;-80
2021/01/11 17:54:50;;;;;;;17.30;8.27;;;0.50;97.30;;;;;;4898500;29;20240;-79
2021/01/11 17:57:16;;;;;;;20.77;8.73;;;0.50;97.30;;;;;;4898312;29;20575;-79
2021/01/11 17:59:41;;;;;;;21.47;9.53;;;0.50;97.30;;;;;;4898357;29;20647;-79
2021/01/11 18:02:08;;;;;;;17.40;9.00;;;0.50;97.30;;;;;;4898368;29;20201;-80
2021/01/11 18:04:34;;;;;;;16.03;8.53;;;0.50;97.30;;;;;;4898625;29;20181;-80
2021/01/11 18:07:07;;;;;;;16.53;8.00;;;0.50;97.30;;;;;;4898673;29;20817;-79
2021/01/11 18:09:39;;;;;;;19.70;9.27;;;0.50;97.30;;;;;;4898155;29;20418;-80
2021/01/11 18:12:06;;;;;;;17.83;8.50;;;0.50;97.30;;;;;;4898175;29;20516;-81
2021/01/11 18:14:33;;;;;;;22.90;9.10;;;0.50;97.30;;;;;;4898160;29;20453;-81
2021/01/11 18:17:01;;;;;;;16.30;7.10;;;0.50;97.30;;;;;;4897227;29;20936;-76
2021/01/11 18:19:28;;;;;;;17.90;8.80;;;0.50;97.30;;;;;;4897316;29;20910;-81
2021/01/11 18:21:54;;;;;;;19.23;9.00;;;0.50;97.30;;;;;;4899119;29;21060;-78
2021/01/11 18:24:20;;;;;;;20.43;8.13;;;0.50;97.30;;;;;;4903369;29;20426;-77
2021/01/11 18:26:46;;;;;;;19.13;7.73;;;0.50;97.30;;;;;;4905540;29;20780;-76
2021/01/11 18:29:12;;;;;;;18.80;8.97;;;0.50;97.30;;;;;;4905112;29;20176;-77
2021/01/11 18:31:38;;;;;;;20.03;8.70;;;0.50;97.30;;;;;;4900653;29;21020;-80
2021/01/11 18:34:04;;;;;;;16.67;8.70;;;0.50;97.30;;;;;;4909403;29;20235;-78
2021/01/11 18:36:30;;;;;;;19.80;9.40;;;0.50;97.30;;;;;;4896207;29;20541;-77
2021/01/11 18:38:56;;;;;;;20.03;9.13;;;0.50;97.30;;;;;;4907222;29;20449;-79
2021/01/11 18:41:23;;;;;;;19.87;9.33;;;0.50;97.30;;;;;;4906558;29;20468;-77
2021/01/11 18:43:49;;;;;;;17.03;8.60;;;0.40;97.30;;;;;;4908415;29;20180;-79
2021/01/11 18:46:17;;;;;;;15.60;8.57;;;0.40;97.30;;;;;;4907231;29;20453;-77
2021/01/11 18:48:44;;;;;;;18.00;8.87;;;0.40;97.30;;;;;;4905976;29;20545;-78
2021/01/11 18:51:11;;;;;;;20.87;9.87;;;0.40;97.30;;;;;;4905196;29;20480;-79
2021/01/11 18:53:39;;;;;;;17.13;8.57;;;0.30;97.30;;;;;;4907262;29;20795;-76
2021/01/11 18:56:09;;;;;;;18.87;9.17;;;0.30;97.30;;;;;;4898058;29;20425;-79
2021/01/11 18:58:37;;;;;;;20.70;9.07;;;0.30;97.30;;;;;;4897386;29;20433;-80
2021/01/11 19:01:06;;;;;;;17.83;8.63;;;0.30;97.30;;;;;;4897784;29;20483;-79
2021/01/11 19:03:32;;;;;;;22.67;9.37;;;0.20;97.30;;;;;;4897055;29;20453;-80